ESGG/GOT METAR and TAF weather

Enter ICAO airport designator
Station Type Date Time Source
ESGG METAR 2018/07/21 22:50 UTC NOAA

ESGG 212250Z 21006KT CAVOK 14/11 Q1010


Station Type Date Time Source
ESGG Decoded METAR 2018/07/21 22:50 UTC NOAA

Goteborg / Landvetter, Sweden (ESGG) 57-40N 012-18E
Jul 21, 2018 - 06:50 PM EDT / 2018.07.21 2250 UTC
Wind: from the SSW (210 degrees) at 7 MPH (6 KT):0
Visibility: greater than 7 mile(s):0
Temperature: 57 F (14 C)
Dew Point: 51 F (11 C)
Relative Humidity: 82%
Pressure (altimeter): 29.83 in. Hg (1010 hPa)
ob: ESGG 212250Z 21006KT CAVOK 14/11 Q1010
cycle: 23

Station Type Date Time Source
ESGG TAF 2018/07/21 18:33 UTC NOAA

TAF TAF ESGG 211730Z 2118/2218 24009KT 9999 SCT035


Example: see airport list